Springdale, Washington
Current Conditions -  °F | °C
As of 1:17 PM on Thursday 18 Dec 2014 (Local Time) from KDEW Reporting Station
Overcast Overcast  
Wind Chill: 37°   Ceiling: 700
Heat Index: 37°   Visibility: 10mi
Dew Point: 34°   Wind: 0mph
Humidity: 89%   Direction: NA
Pressure: 29.98"   Gusts: NA
Location:  48.06°N, 117.74°W
Report Text: KDEW 182117Z AUTO 00000KT 10SM OVC007 03/01 A2998 RMK AO2 T00280011
Loading
Personal Weather Stations






























Interactive Weather Map New forecast layout! Learn more

10-Day Weather Forecast

Advertisements
Track Severe Weather on mobile